Time;durP1;ratioP1;P1;durP2;ratioP2;P2;SDS_P1;SDS_P2;PMS_P1;PMS_P2;Temp;Humidity;BMP_temperature;BMP_pressure;BME280_temperature;BME280_humidity;BME280_pressure;Samples;Min_cycle;Max_cycle;Signal;HPM_P1;HPM_P2
2023/02/04 00:00:12;;;;;;;12.32;11.60;;;;;;;;;;4995587;28;20038;-51
2023/02/04 00:02:38;;;;;;;12.38;11.55;;;;;;;;;;4996270;28;20048;-50
2023/02/04 00:05:04;;;;;;;12.15;11.38;;;;;;;;;;4996691;28;20037;-53
2023/02/04 00:07:29;;;;;;;14.63;13.45;;;;;;;;;;4998127;28;20112;-53
2023/02/04 00:09:54;;;;;;;12.23;11.38;;;;;;;;;;4994050;28;20052;-53
2023/02/04 00:12:20;;;;;;;11.45;10.75;;;;;;;;;;4998665;28;20117;-55
2023/02/04 00:14:45;;;;;;;11.43;10.73;;;;;;;;;;4998308;28;20122;-53
2023/02/04 00:17:11;;;;;;;11.52;10.82;;;;;;;;;;4995215;28;20038;-54
2023/02/04 00:19:38;;;;;;;11.77;11.07;;;;;;;;;;4995373;28;20034;-50
2023/02/04 00:22:04;;;;;;;11.15;10.45;;;;;;;;;;4994391;28;20150;-52
2023/02/04 00:24:29;;;;;;;11.65;10.95;;;;;;;;;;4996862;28;20136;-53
2023/02/04 00:26:55;;;;;;;12.55;11.65;;;;;;;;;;4997121;28;20038;-51
2023/02/04 00:29:21;;;;;;;11.35;10.55;;;;;;;;;;4996087;28;20375;-50
2023/02/04 00:31:46;;;;;;;12.48;11.70;;;;;;;;;;4994537;28;20117;-51
2023/02/04 00:34:11;;;;;;;12.63;11.38;;;;;;;;;;4994910;28;20042;-51
2023/02/04 00:36:37;;;;;;;11.90;11.18;;;;;;;;;;4994377;28;20044;-53
2023/02/04 00:39:02;;;;;;;11.15;10.45;;;;;;;;;;4995114;28;20041;-53
2023/02/04 00:41:28;;;;;;;11.25;10.55;;;;;;;;;;4996421;28;20065;-52
2023/02/04 00:43:53;;;;;;;18.60;11.68;;;;;;;;;;4999765;28;20076;-51
2023/02/04 00:46:18;;;;;;;16.05;11.70;;;;;;;;;;4994905;28;20091;-51
2023/02/04 00:48:44;;;;;;;10.85;10.15;;;;;;;;;;4995886;28;20381;-48
2023/02/04 00:51:09;;;;;;;11.55;10.85;;;;;;;;;;4993863;28;20030;-49
2023/02/04 00:53:34;;;;;;;11.60;10.90;;;;;;;;;;4991465;28;20080;-51
2023/02/04 00:56:00;;;;;;;11.20;10.45;;;;;;;;;;4997879;28;20106;-51
2023/02/04 00:58:25;;;;;;;12.27;11.48;;;;;;;;;;4996089;28;20136;-51
2023/02/04 01:00:50;;;;;;;12.05;11.27;;;;;;;;;;4993590;28;20249;-48
2023/02/04 01:03:16;;;;;;;12.07;11.27;;;;;;;;;;4993176;28;20044;-53
2023/02/04 01:05:41;;;;;;;11.57;10.88;;;;;;;;;;4996266;28;20608;-53
2023/02/04 01:08:06;;;;;;;12.02;11.30;;;;;;;;;;4998494;28;20120;-53
2023/02/04 01:10:32;;;;;;;11.43;10.73;;;;;;;;;;4996302;28;20068;-53
2023/02/04 01:12:57;;;;;;;12.57;11.57;;;;;;;;;;4992629;28;20034;-53
2023/02/04 01:15:23;;;;;;;11.50;10.80;;;;;;;;;;4995935;28;20370;-53
2023/02/04 01:17:48;;;;;;;12.13;11.32;;;;;;;;;;5003600;28;20026;-52
2023/02/04 01:20:14;;;;;;;12.80;12.00;;;;;;;;;;4995139;28;20026;-54
2023/02/04 01:22:39;;;;;;;11.52;10.82;;;;;;;;;;4994731;28;20041;-53
2023/02/04 01:25:05;;;;;;;11.68;10.63;;;;;;;;;;4994947;28;20030;-52
2023/02/04 01:27:30;;;;;;;11.13;10.43;;;;;;;;;;4995626;28;20042;-52
2023/02/04 01:29:56;;;;;;;10.45;9.75;;;;;;;;;;4994649;28;20620;-50
2023/02/04 01:32:21;;;;;;;11.73;11.02;;;;;;;;;;4995164;28;20046;-50
2023/02/04 01:34:46;;;;;;;13.00;12.00;;;;;;;;;;4995533;28;20042;-51
2023/02/04 01:37:12;;;;;;;12.38;11.68;;;;;;;;;;4994559;28;20049;-51
2023/02/04 01:39:37;;;;;;;11.82;11.05;;;;;;;;;;4993947;28;20022;-50
2023/02/04 01:42:03;;;;;;;11.85;11.15;;;;;;;;;;4992993;28;20482;-54
2023/02/04 01:44:29;;;;;;;11.98;11.18;;;;;;;;;;4995708;28;20341;-52
2023/02/04 01:46:54;;;;;;;12.23;11.52;;;;;;;;;;4993603;28;20046;-52
2023/02/04 01:49:20;;;;;;;15.32;12.43;;;;;;;;;;4996538;28;20116;-54
2023/02/04 01:51:45;;;;;;;12.23;11.35;;;;;;;;;;4993157;28;20034;-53
2023/02/04 01:54:12;;;;;;;11.90;11.13;;;;;;;;;;4993115;28;20035;-52
2023/02/04 01:56:39;;;;;;;14.50;11.77;;;;;;;;;;4995335;28;20117;-54
2023/02/04 01:59:12;;;;;;;11.65;10.95;;;;;;;;;;4996998;28;20034;-52
2023/02/04 02:01:43;;;;;;;12.02;11.23;;;;;;;;;;4998786;28;20030;-51
2023/02/04 02:04:17;;;;;;;13.52;10.63;;;;;;;;;;4994183;28;20488;-54
2023/02/04 02:06:48;;;;;;;12.07;11.23;;;;;;;;;;4991311;28;20113;-52
2023/02/04 02:09:14;;;;;;;11.52;10.82;;;;;;;;;;4998131;28;20035;-53
2023/02/04 02:11:39;;;;;;;11.68;10.98;;;;;;;;;;5006475;28;20470;-54
2023/02/04 02:14:05;;;;;;;11.40;10.60;;;;;;;;;;4998443;28;20089;-52
2023/02/04 02:16:30;;;;;;;12.07;11.23;;;;;;;;;;5001138;28;20655;-52
2023/02/04 02:18:57;;;;;;;12.07;11.27;;;;;;;;;;4997132;28;20104;-51
2023/02/04 02:21:34;;;;;;;11.00;10.30;;;;;;;;;;4999766;28;20049;-53
2023/02/04 02:24:02;;;;;;;11.40;10.63;;;;;;;;;;5005569;28;20026;-52
2023/02/04 02:26:28;;;;;;;12.02;11.32;;;;;;;;;;5000003;28;20560;-53
2023/02/04 02:28:53;;;;;;;10.95;10.25;;;;;;;;;;5015217;28;20112;-53
2023/02/04 02:31:21;;;;;;;11.77;11.07;;;;;;;;;;4997775;28;20124;-53
2023/02/04 02:33:47;;;;;;;11.45;10.75;;;;;;;;;;4997516;28;20395;-51
2023/02/04 02:36:13;;;;;;;13.07;12.18;;;;;;;;;;4998393;28;20029;-50
2023/02/04 02:38:39;;;;;;;12.30;11.40;;;;;;;;;;5000156;28;20034;-52
2023/02/04 02:41:07;;;;;;;11.10;10.40;;;;;;;;;;5000036;28;20032;-54
2023/02/04 02:43:34;;;;;;;12.02;11.32;;;;;;;;;;4996932;28;20631;-50
2023/02/04 02:46:00;;;;;;;11.00;10.30;;;;;;;;;;4997423;28;20034;-52
2023/02/04 02:48:26;;;;;;;12.48;11.68;;;;;;;;;;4999157;28;20600;-53
2023/02/04 02:50:52;;;;;;;11.98;10.93;;;;;;;;;;4998780;28;20116;-52
2023/02/04 02:53:19;;;;;;;11.32;10.63;;;;;;;;;;4998939;28;20148;-51
2023/02/04 02:55:45;;;;;;;10.20;9.60;;;;;;;;;;4996163;28;20037;-54
2023/02/04 02:58:17;;;;;;;11.80;11.10;;;;;;;;;;4996912;28;20530;-50
2023/02/04 03:00:42;;;;;;;12.15;11.30;;;;;;;;;;4997878;28;20049;-51
2023/02/04 03:03:14;;;;;;;12.93;12.05;;;;;;;;;;4998320;28;20034;-50
2023/02/04 03:05:42;;;;;;;19.08;13.13;;;;;;;;;;4995568;28;20037;-49
2023/02/04 03:08:11;;;;;;;11.55;10.85;;;;;;;;;;4996262;28;20034;-51
2023/02/04 03:10:36;;;;;;;12.52;11.73;;;;;;;;;;4996438;28;20744;-51
2023/02/04 03:13:02;;;;;;;12.80;11.93;;;;;;;;;;4998779;28;20061;-50
2023/02/04 03:15:28;;;;;;;12.52;11.60;;;;;;;;;;4996053;28;20451;-52
2023/02/04 03:17:55;;;;;;;12.10;11.30;;;;;;;;;;4998843;28;20061;-54
2023/02/04 03:20:23;;;;;;;13.52;12.73;;;;;;;;;;4995126;28;20050;-51
2023/02/04 03:22:49;;;;;;;13.73;12.45;;;;;;;;;;4998415;28;20040;-54
2023/02/04 03:25:15;;;;;;;12.65;11.52;;;;;;;;;;4999118;28;20390;-54
2023/02/04 03:27:40;;;;;;;11.65;10.95;;;;;;;;;;4998287;28;20030;-54
2023/02/04 03:30:07;;;;;;;11.63;10.93;;;;;;;;;;4998219;28;20133;-51
2023/02/04 03:32:33;;;;;;;15.05;13.93;;;;;;;;;;4997010;28;20061;-50
2023/02/04 03:34:58;;;;;;;11.88;10.70;;;;;;;;;;4994665;28;20033;-50
2023/02/04 03:37:24;;;;;;;12.77;11.98;;;;;;;;;;4996940;28;20408;-52
2023/02/04 03:39:49;;;;;;;12.05;11.07;;;;;;;;;;4996986;28;20040;-51
2023/02/04 03:42:14;;;;;;;11.25;10.52;;;;;;;;;;4995727;28;20050;-53
2023/02/04 03:44:40;;;;;;;11.77;10.90;;;;;;;;;;4995017;28;20030;-50
2023/02/04 03:47:05;;;;;;;12.40;11.70;;;;;;;;;;4998404;28;20109;-51
2023/02/04 03:49:31;;;;;;;11.23;10.52;;;;;;;;;;4997782;28;20088;-51
2023/02/04 03:51:56;;;;;;;10.68;10.00;;;;;;;;;;4996581;28;20026;-53
2023/02/04 03:54:22;;;;;;;11.55;10.55;;;;;;;;;;4996334;28;20432;-53
2023/02/04 03:56:47;;;;;;;12.32;11.45;;;;;;;;;;4998462;28;20080;-54
2023/02/04 03:59:13;;;;;;;13.13;12.05;;;;;;;;;;4996355;28;20636;-52
2023/02/04 04:01:38;;;;;;;22.42;12.70;;;;;;;;;;4995611;28;20197;-52
2023/02/04 04:04:03;;;;;;;12.20;11.40;;;;;;;;;;4994414;28;20038;-53
2023/02/04 04:06:30;;;;;;;13.80;12.50;;;;;;;;;;4997056;28;20033;-52
2023/02/04 04:08:55;;;;;;;12.35;11.43;;;;;;;;;;4994227;28;20728;-54
2023/02/04 04:11:20;;;;;;;12.23;11.35;;;;;;;;;;4995556;28;20107;-51
2023/02/04 04:13:46;;;;;;;12.48;11.55;;;;;;;;;;4994054;28;20058;-53
2023/02/04 04:16:11;;;;;;;11.60;10.90;;;;;;;;;;4998596;28;20041;-51
2023/02/04 04:18:37;;;;;;;12.50;11.75;;;;;;;;;;4994808;28;20084;-49
2023/02/04 04:21:02;;;;;;;12.07;11.32;;;;;;;;;;4996942;28;20536;-49
2023/02/04 04:23:27;;;;;;;13.50;12.27;;;;;;;;;;4996110;28;20034;-53
2023/02/04 04:25:53;;;;;;;13.82;12.93;;;;;;;;;;4994870;28;20040;-51
2023/02/04 04:28:18;;;;;;;11.95;11.25;;;;;;;;;;4994760;28;20049;-53
2023/02/04 04:30:43;;;;;;;12.38;11.55;;;;;;;;;;4996086;28;20031;-53
2023/02/04 04:33:09;;;;;;;11.82;11.13;;;;;;;;;;4993062;28;20180;-51
2023/02/04 04:35:34;;;;;;;13.02;12.23;;;;;;;;;;5001756;28;20034;-54
2023/02/04 04:38:00;;;;;;;14.27;13.30;;;;;;;;;;4997631;28;20030;-54
2023/02/04 04:40:26;;;;;;;13.18;12.38;;;;;;;;;;4994775;28;20049;-53
2023/02/04 04:42:51;;;;;;;13.13;12.32;;;;;;;;;;4992852;28;20046;-53
2023/02/04 04:45:17;;;;;;;15.18;13.65;;;;;;;;;;5000245;28;20130;-53
2023/02/04 04:47:42;;;;;;;14.98;13.98;;;;;;;;;;4995920;28;20100;-50
2023/02/04 04:50:08;;;;;;;12.65;11.82;;;;;;;;;;4993719;28;20026;-51
2023/02/04 04:52:33;;;;;;;12.68;11.95;;;;;;;;;;4998021;28;20038;-51
2023/02/04 04:54:59;;;;;;;13.07;12.27;;;;;;;;;;4996462;28;20475;-51
2023/02/04 04:57:24;;;;;;;13.55;12.65;;;;;;;;;;4994604;28;20030;-51
2023/02/04 04:59:49;;;;;;;12.60;11.88;;;;;;;;;;4996930;28;20514;-53
2023/02/04 05:02:15;;;;;;;12.35;11.63;;;;;;;;;;4995317;28;20109;-53
2023/02/04 05:04:40;;;;;;;14.77;13.88;;;;;;;;;;4995624;28;20456;-54
2023/02/04 05:07:05;;;;;;;15.45;14.10;;;;;;;;;;4995433;28;20034;-54
2023/02/04 05:09:31;;;;;;;13.15;11.95;;;;;;;;;;4995614;28;20026;-54
2023/02/04 05:11:56;;;;;;;13.48;12.60;;;;;;;;;;4998024;28;20384;-54
2023/02/04 05:14:21;;;;;;;13.75;12.75;;;;;;;;;;4994684;28;20073;-53
2023/02/04 05:16:47;;;;;;;15.38;14.27;;;;;;;;;;4995689;28;20042;-53
2023/02/04 05:19:12;;;;;;;12.48;11.77;;;;;;;;;;4998204;28;20033;-54
2023/02/04 05:21:37;;;;;;;12.82;11.95;;;;;;;;;;4995300;28;20512;-53
2023/02/04 05:24:05;;;;;;;12.48;11.52;;;;;;;;;;4997596;28;20030;-53
2023/02/04 05:26:31;;;;;;;12.27;11.57;;;;;;;;;;4995238;28;20068;-50
2023/02/04 05:28:59;;;;;;;13.63;12.68;;;;;;;;;;4997891;28;20585;-52
2023/02/04 05:31:24;;;;;;;12.68;11.88;;;;;;;;;;4994989;28;20356;-52
2023/02/04 05:33:50;;;;;;;12.60;11.77;;;;;;;;;;4997841;28;20061;-53
2023/02/04 05:36:16;;;;;;;14.50;13.60;;;;;;;;;;4996824;28;20042;-53
2023/02/04 05:38:42;;;;;;;13.35;12.55;;;;;;;;;;4992900;28;20026;-51
2023/02/04 05:41:07;;;;;;;12.70;11.85;;;;;;;;;;4994995;28;20703;-54
2023/02/04 05:43:32;;;;;;;13.55;12.55;;;;;;;;;;4994155;28;20121;-52
2023/02/04 05:45:58;;;;;;;13.13;12.05;;;;;;;;;;4996081;28;20062;-52
2023/02/04 05:48:23;;;;;;;12.52;11.68;;;;;;;;;;4993878;28;20034;-53
2023/02/04 05:50:48;;;;;;;11.70;11.00;;;;;;;;;;4993299;28;20128;-51
2023/02/04 05:53:14;;;;;;;13.05;12.25;;;;;;;;;;4994214;28;20382;-54
2023/02/04 05:55:39;;;;;;;11.90;11.20;;;;;;;;;;5000937;28;20759;-54
2023/02/04 05:58:04;;;;;;;12.18;11.38;;;;;;;;;;4998981;28;20030;-55
2023/02/04 06:00:30;;;;;;;13.32;12.38;;;;;;;;;;4995560;28;20113;-56
2023/02/04 06:02:55;;;;;;;13.15;12.35;;;;;;;;;;5001183;28;20040;-54
2023/02/04 06:05:21;;;;;;;12.93;12.02;;;;;;;;;;4993228;28;20049;-53
2023/02/04 06:07:47;;;;;;;12.13;11.43;;;;;;;;;;4994196;28;20036;-54
2023/02/04 06:10:13;;;;;;;13.32;11.20;;;;;;;;;;4993544;28;20660;-52
2023/02/04 06:12:38;;;;;;;13.45;12.60;;;;;;;;;;4994348;28;20045;-56
2023/02/04 06:15:04;;;;;;;12.90;12.10;;;;;;;;;;4995359;28;20030;-54
2023/02/04 06:17:29;;;;;;;13.15;12.35;;;;;;;;;;4993749;28;20038;-57
2023/02/04 06:19:55;;;;;;;13.55;12.57;;;;;;;;;;4994758;28;20164;-55
2023/02/04 06:22:23;;;;;;;28.33;11.48;;;;;;;;;;4996341;28;20034;-54
2023/02/04 06:24:48;;;;;;;12.70;11.80;;;;;;;;;;4994901;28;20128;-57
2023/02/04 06:27:13;;;;;;;11.77;11.07;;;;;;;;;;4997071;28;20038;-52
2023/02/04 06:29:39;;;;;;;11.77;11.07;;;;;;;;;;4996246;28;20030;-55
2023/02/04 06:32:04;;;;;;;12.70;11.88;;;;;;;;;;4995280;28;20041;-57
2023/02/04 06:34:29;;;;;;;14.93;13.65;;;;;;;;;;4993449;28;20030;-56
2023/02/04 06:36:55;;;;;;;15.07;13.45;;;;;;;;;;4993548;28;20110;-55
2023/02/04 06:39:20;;;;;;;12.18;11.13;;;;;;;;;;4994317;28;20034;-52
2023/02/04 06:41:45;;;;;;;13.27;12.38;;;;;;;;;;4995459;28;20168;-57
2023/02/04 06:44:11;;;;;;;14.15;12.63;;;;;;;;;;4994940;28;20038;-55
2023/02/04 06:46:36;;;;;;;12.60;11.85;;;;;;;;;;5002636;28;20034;-56
2023/02/04 06:49:01;;;;;;;12.82;12.02;;;;;;;;;;4995271;28;20046;-55
2023/02/04 06:51:27;;;;;;;13.48;12.68;;;;;;;;;;4996120;28;20029;-55
2023/02/04 06:53:52;;;;;;;13.88;12.88;;;;;;;;;;4995255;28;20031;-54
2023/02/04 06:56:17;;;;;;;13.55;12.35;;;;;;;;;;5002507;28;20048;-56
2023/02/04 06:58:43;;;;;;;12.23;11.43;;;;;;;;;;5000113;28;20053;-51
2023/02/04 07:01:08;;;;;;;13.63;12.73;;;;;;;;;;4995847;28;20105;-55
2023/02/04 07:03:33;;;;;;;12.65;11.85;;;;;;;;;;4994899;28;20077;-54
2023/02/04 07:05:59;;;;;;;13.75;12.75;;;;;;;;;;4997704;28;20070;-55
2023/02/04 07:08:24;;;;;;;11.70;11.00;;;;;;;;;;4998652;28;20272;-54
2023/02/04 07:10:49;;;;;;;14.00;12.73;;;;;;;;;;5001220;28;20411;-54
2023/02/04 07:13:15;;;;;;;15.82;14.40;;;;;;;;;;4999411;28;20034;-52
2023/02/04 07:15:40;;;;;;;14.40;13.40;;;;;;;;;;4994464;28;20041;-54
2023/02/04 07:18:05;;;;;;;13.00;11.90;;;;;;;;;;4996596;28;20044;-54
2023/02/04 07:20:31;;;;;;;12.95;12.15;;;;;;;;;;4999092;28;20149;-55
2023/02/04 07:22:56;;;;;;;13.23;12.40;;;;;;;;;;4996511;28;20042;-55
2023/02/04 07:25:22;;;;;;;11.95;11.25;;;;;;;;;;4999331;28;20057;-55
2023/02/04 07:27:47;;;;;;;12.57;11.80;;;;;;;;;;5004863;28;20392;-55
2023/02/04 07:30:13;;;;;;;13.52;12.68;;;;;;;;;;4995433;28;20030;-57
2023/02/04 07:32:38;;;;;;;13.00;11.95;;;;;;;;;;4996608;28;20045;-53
2023/02/04 07:35:04;;;;;;;12.32;11.43;;;;;;;;;;4996058;28;20122;-55
2023/02/04 07:37:29;;;;;;;13.30;11.85;;;;;;;;;;4994672;28;20030;-55
2023/02/04 07:39:54;;;;;;;12.75;11.85;;;;;;;;;;4994504;28;20038;-53
2023/02/04 07:42:20;;;;;;;13.15;12.35;;;;;;;;;;4996847;28;20053;-51
2023/02/04 07:44:45;;;;;;;11.43;10.73;;;;;;;;;;4994995;28;20065;-50
2023/02/04 07:47:11;;;;;;;11.80;11.10;;;;;;;;;;4996756;28;20038;-53
2023/02/04 07:49:37;;;;;;;11.32;10.63;;;;;;;;;;4995823;28;20030;-56
2023/02/04 07:52:02;;;;;;;12.20;11.30;;;;;;;;;;4997855;28;20396;-55
2023/02/04 07:54:28;;;;;;;12.52;11.68;;;;;;;;;;4995356;28;20578;-54
2023/02/04 07:56:53;;;;;;;11.30;10.60;;;;;;;;;;4996232;28;20428;-53
2023/02/04 07:59:18;;;;;;;10.70;10.00;;;;;;;;;;4996049;28;20033;-56
2023/02/04 08:01:44;;;;;;;11.75;10.93;;;;;;;;;;4997319;28;20038;-53
2023/02/04 08:04:09;;;;;;;10.65;10.02;;;;;;;;;;4995834;28;20724;-54
2023/02/04 08:06:34;;;;;;;13.82;12.52;;;;;;;;;;4997290;28;20069;-55
2023/02/04 08:09:00;;;;;;;11.20;10.45;;;;;;;;;;4997934;28;20115;-54
2023/02/04 08:11:25;;;;;;;12.23;11.43;;;;;;;;;;4996013;28;20072;-56
2023/02/04 08:13:51;;;;;;;13.25;12.35;;;;;;;;;;4994950;28;20045;-56
2023/02/04 08:16:16;;;;;;;11.63;10.88;;;;;;;;;;4995021;28;20287;-56
2023/02/04 08:18:42;;;;;;;12.32;11.52;;;;;;;;;;4997166;28;20036;-57
2023/02/04 08:21:07;;;;;;;14.32;13.07;;;;;;;;;;4996426;28;20026;-56
2023/02/04 08:23:32;;;;;;;13.35;11.93;;;;;;;;;;4994733;28;20034;-56
2023/02/04 08:25:58;;;;;;;13.35;12.35;;;;;;;;;;4998519;28;20110;-57
2023/02/04 08:28:24;;;;;;;12.35;11.65;;;;;;;;;;4994375;28;20388;-55
2023/02/04 08:30:49;;;;;;;11.68;10.98;;;;;;;;;;5002784;28;20022;-56
2023/02/04 08:33:15;;;;;;;12.02;11.23;;;;;;;;;;4994712;28;20469;-56
2023/02/04 08:35:40;;;;;;;11.68;10.95;;;;;;;;;;4995289;28;20367;-57
2023/02/04 08:38:05;;;;;;;13.00;12.00;;;;;;;;;;4996094;28;20034;-57
2023/02/04 08:40:31;;;;;;;11.52;10.82;;;;;;;;;;4998190;28;20034;-56
2023/02/04 08:42:56;;;;;;;11.68;10.73;;;;;;;;;;4996990;28;20348;-56
2023/02/04 08:45:21;;;;;;;12.02;11.23;;;;;;;;;;4996168;28;20129;-57
2023/02/04 08:47:47;;;;;;;12.75;11.75;;;;;;;;;;4997020;28;20117;-56
2023/02/04 08:50:12;;;;;;;12.65;11.82;;;;;;;;;;4992479;28;20137;-57
2023/02/04 08:52:38;;;;;;;11.50;10.80;;;;;;;;;;4990466;28;20117;-56
2023/02/04 08:55:03;;;;;;;12.82;11.98;;;;;;;;;;4991445;28;20114;-57
2023/02/04 08:57:29;;;;;;;11.75;10.70;;;;;;;;;;4999040;28;20030;-57
2023/02/04 08:59:54;;;;;;;11.63;10.93;;;;;;;;;;4995042;28;20022;-56
2023/02/04 09:02:19;;;;;;;13.27;11.98;;;;;;;;;;4997061;28;20553;-59
2023/02/04 09:04:45;;;;;;;12.63;11.82;;;;;;;;;;4995635;28;20044;-55
2023/02/04 09:07:10;;;;;;;13.27;12.48;;;;;;;;;;4997511;28;20034;-57
2023/02/04 09:09:35;;;;;;;15.65;13.13;;;;;;;;;;4993626;28;20502;-57
2023/02/04 09:12:02;;;;;;;14.70;13.50;;;;;;;;;;4995222;28;20033;-57
2023/02/04 09:14:27;;;;;;;12.45;11.75;;;;;;;;;;4995535;28;20030;-55
2023/02/04 09:16:52;;;;;;;14.52;13.38;;;;;;;;;;4993844;28;20342;-57
2023/02/04 09:19:24;;;;;;;13.20;12.40;;;;;;;;;;4996211;28;20104;-57
2023/02/04 09:21:49;;;;;;;;;;;;;;;;;;4994815;28;20085;-58
2023/02/04 09:24:14;;;;;;;11.30;10.60;;;;;;;;;;4996334;28;20256;-57
2023/02/04 09:26:40;;;;;;;14.38;13.35;;;;;;;;;;4998849;28;20679;-58
2023/02/04 09:29:05;;;;;;;13.82;12.90;;;;;;;;;;4996892;28;20420;-56
2023/02/04 09:31:30;;;;;;;13.73;12.90;;;;;;;;;;5003416;28;20049;-57
2023/02/04 09:33:56;;;;;;;12.10;11.38;;;;;;;;;;4997398;28;20025;-57
2023/02/04 09:36:21;;;;;;;14.13;13.23;;;;;;;;;;4995831;28;20038;-56
2023/02/04 09:38:46;;;;;;;13.13;12.07;;;;;;;;;;4998550;28;20030;-53
2023/02/04 09:41:12;;;;;;;13.77;12.57;;;;;;;;;;4994122;28;20034;-56
2023/02/04 09:43:40;;;;;;;14.70;13.63;;;;;;;;;;4994036;28;20116;-56
2023/02/04 09:46:14;;;;;;;13.50;12.60;;;;;;;;;;4992275;28;20464;-57
2023/02/04 09:48:40;;;;;;;12.63;11.82;;;;;;;;;;4997656;28;20068;-57
2023/02/04 09:51:07;;;;;;;14.80;13.80;;;;;;;;;;4995669;28;20681;-56
2023/02/04 09:53:35;;;;;;;13.23;12.43;;;;;;;;;;5010616;28;20041;-57
2023/02/04 09:56:00;;;;;;;14.55;13.43;;;;;;;;;;4994438;28;20038;-56
2023/02/04 09:58:30;;;;;;;15.40;14.50;;;;;;;;;;5000007;28;20030;-56
2023/02/04 10:01:00;;;;;;;14.88;13.88;;;;;;;;;;4992767;28;20034;-45
2023/02/04 10:03:25;;;;;;;13.85;12.95;;;;;;;;;;4992905;28;20384;-46
2023/02/04 10:05:51;;;;;;;16.05;15.15;;;;;;;;;;4995531;28;20037;-45
2023/02/04 10:08:20;;;;;;;13.38;12.57;;;;;;;;;;4996470;28;20057;-45
2023/02/04 10:10:47;;;;;;;14.40;13.60;;;;;;;;;;4997819;28;20037;-45
2023/02/04 10:13:20;;;;;;;15.15;14.18;;;;;;;;;;4991771;28;20038;-55
2023/02/04 10:15:47;;;;;;;14.93;14.02;;;;;;;;;;4993047;28;20045;-56
2023/02/04 10:18:22;;;;;;;13.65;12.85;;;;;;;;;;4993962;28;20049;-57
2023/02/04 10:20:47;;;;;;;13.77;12.73;;;;;;;;;;4992297;28;20038;-58
2023/02/04 10:23:12;;;;;;;14.13;13.23;;;;;;;;;;4994222;28;20052;-46
2023/02/04 10:25:38;;;;;;;14.82;13.85;;;;;;;;;;4994068;28;20042;-46
2023/02/04 10:28:03;;;;;;;14.10;13.30;;;;;;;;;;4997662;28;20042;-48
2023/02/04 10:30:36;;;;;;;16.40;15.25;;;;;;;;;;4997026;28;21088;-48
2023/02/04 10:33:23;;;;;;;13.38;12.52;;;;;;;;;;4999220;28;20034;-47
2023/02/04 10:35:54;;;;;;;11.73;11.02;;;;;;;;;;5000547;28;20455;-46
2023/02/04 10:38:20;;;;;;;12.45;11.68;;;;;;;;;;5000955;28;20037;-46
2023/02/04 10:40:46;;;;;;;12.35;11.63;;;;;;;;;;5001192;28;20030;-45
2023/02/04 10:43:21;;;;;;;12.07;11.18;;;;;;;;;;5001018;28;20053;-46
2023/02/04 10:45:54;;;;;;;11.27;10.57;;;;;;;;;;4998285;28;20042;-50
2023/02/04 10:48:20;;;;;;;12.45;11.60;;;;;;;;;;5000487;28;20313;-50
2023/02/04 10:50:47;;;;;;;12.02;11.23;;;;;;;;;;4998593;28;20038;-49
2023/02/04 10:56:03;;;;;;;12.95;11.73;;;;;;;;;;4996316;28;20050;-48
2023/02/04 10:58:30;;;;;;;11.45;10.75;;;;;;;;;;4998198;28;20033;-49
2023/02/04 11:00:56;;;;;;;12.38;11.48;;;;;;;;;;4997087;28;20092;-49
2023/02/04 11:03:25;;;;;;;11.05;10.38;;;;;;;;;;4998851;28;20052;-50
2023/02/04 11:05:54;;;;;;;11.15;10.45;;;;;;;;;;4999527;28;20479;-48
2023/02/04 11:08:20;;;;;;;11.52;10.68;;;;;;;;;;4997318;28;20037;-51
2023/02/04 11:10:49;;;;;;;12.93;11.85;;;;;;;;;;4996942;28;20040;-48
2023/02/04 11:13:24;;;;;;;11.93;11.23;;;;;;;;;;4994364;28;20436;-48
2023/02/04 11:16:07;;;;;;;13.07;11.93;;;;;;;;;;4998314;28;20048;-46
2023/02/04 11:18:44;;;;;;;11.82;11.02;;;;;;;;;;4999461;28;20030;-47
2023/02/04 11:21:21;;;;;;;12.52;11.70;;;;;;;;;;4994605;28;20026;-51
2023/02/04 11:23:47;;;;;;;12.98;12.10;;;;;;;;;;4998853;28;20053;-47
2023/02/04 11:26:30;;;;;;;12.18;11.27;;;;;;;;;;4998250;28;20554;-46
2023/02/04 11:28:58;;;;;;;13.15;12.35;;;;;;;;;;4996917;28;20090;-47
2023/02/04 11:31:23;;;;;;;12.57;11.77;;;;;;;;;;4997536;28;20041;-47
2023/02/04 11:34:01;;;;;;;11.25;10.55;;;;;;;;;;4997284;28;20030;-48
2023/02/04 11:36:26;;;;;;;11.93;11.13;;;;;;;;;;4996331;28;20042;-48
2023/02/04 11:38:52;;;;;;;11.65;10.95;;;;;;;;;;5000271;28;20050;-51
2023/02/04 11:41:25;;;;;;;13.88;13.07;;;;;;;;;;4996707;28;20113;-49
2023/02/04 11:43:53;;;;;;;14.18;13.18;;;;;;;;;;4997788;28;20052;-48
2023/02/04 11:46:19;;;;;;;13.98;13.07;;;;;;;;;;4995733;28;20069;-49
2023/02/04 11:48:44;;;;;;;13.27;12.48;;;;;;;;;;4995759;28;20120;-49
2023/02/04 11:51:13;;;;;;;15.00;13.77;;;;;;;;;;4994353;28;20029;-46
2023/02/04 11:53:39;;;;;;;14.15;13.20;;;;;;;;;;4995404;28;20030;-50
2023/02/04 11:56:04;;;;;;;13.50;12.68;;;;;;;;;;4997366;28;20038;-46
2023/02/04 11:58:31;;;;;;;14.75;13.52;;;;;;;;;;4997366;28;20041;-50
2023/02/04 12:00:57;;;;;;;13.63;12.75;;;;;;;;;;4997781;28;20038;-47
2023/02/04 12:03:32;;;;;;;15.60;13.38;;;;;;;;;;4994868;28;20057;-50
2023/02/04 12:05:58;;;;;;;12.35;11.65;;;;;;;;;;4997114;28;20076;-49
2023/02/04 12:08:35;;;;;;;13.13;12.02;;;;;;;;;;4996411;28;20452;-59
2023/02/04 12:11:24;;;;;;;13.90;12.98;;;;;;;;;;4995677;28;20023;-46
2023/02/04 12:13:53;;;;;;;12.13;11.43;;;;;;;;;;4996890;28;20034;-58
2023/02/04 12:16:19;;;;;;;14.30;12.95;;;;;;;;;;4994001;28;20067;-48
2023/02/04 12:18:44;;;;;;;11.00;10.32;;;;;;;;;;4995422;28;20042;-57
2023/02/04 12:21:10;;;;;;;11.48;10.77;;;;;;;;;;4995853;28;20038;-57
2023/02/04 12:23:36;;;;;;;11.70;10.90;;;;;;;;;;4995382;28;20208;-59
2023/02/04 12:26:01;;;;;;;12.00;11.15;;;;;;;;;;4998454;28;20034;-48
2023/02/04 12:28:27;;;;;;;12.43;11.25;;;;;;;;;;4997076;28;20522;-47
2023/02/04 12:30:53;;;;;;;12.38;11.57;;;;;;;;;;4995778;28;20030;-50
2023/02/04 12:33:18;;;;;;;14.90;10.48;;;;;;;;;;4993128;28;20384;-47
2023/02/04 12:35:44;;;;;;;11.15;10.45;;;;;;;;;;4995704;28;20030;-56
2023/02/04 12:38:10;;;;;;;13.50;12.38;;;;;;;;;;4995752;28;20604;-57
2023/02/04 12:40:35;;;;;;;11.10;10.40;;;;;;;;;;4995549;28;20443;-56
2023/02/04 12:43:01;;;;;;;13.40;12.60;;;;;;;;;;4999104;28;20037;-55
2023/02/04 12:45:26;;;;;;;14.57;13.73;;;;;;;;;;4994238;28;20127;-57
2023/02/04 12:47:51;;;;;;;16.20;15.25;;;;;;;;;;4998857;28;20053;-57
2023/02/04 12:50:24;;;;;;;17.02;16.08;;;;;;;;;;4994211;28;20038;-59
2023/02/04 12:52:53;;;;;;;16.65;15.75;;;;;;;;;;4996829;28;20037;-57
2023/02/04 12:55:20;;;;;;;14.15;13.35;;;;;;;;;;4995262;28;20049;-58
2023/02/04 12:57:45;;;;;;;16.17;15.27;;;;;;;;;;4994297;28;20044;-59
2023/02/04 13:00:12;;;;;;;16.27;15.15;;;;;;;;;;4993279;28;20030;-56
2023/02/04 13:02:38;;;;;;;17.33;16.33;;;;;;;;;;4991832;28;20117;-58
2023/02/04 13:05:03;;;;;;;16.75;15.75;;;;;;;;;;4991887;28;20120;-59
2023/02/04 13:07:29;;;;;;;14.13;13.32;;;;;;;;;;4993151;28;20499;-59
2023/02/04 13:09:54;;;;;;;16.13;15.23;;;;;;;;;;4993022;28;20091;-57
2023/02/04 13:12:19;;;;;;;15.80;14.90;;;;;;;;;;4999089;28;20391;-58
2023/02/04 13:14:45;;;;;;;15.98;14.98;;;;;;;;;;4992969;28;20099;-60
2023/02/04 13:17:10;;;;;;;16.50;15.50;;;;;;;;;;4994149;28;20030;-57
2023/02/04 13:19:36;;;;;;;17.55;16.50;;;;;;;;;;4994848;28;20038;-57
2023/02/04 13:22:01;;;;;;;16.70;15.70;;;;;;;;;;4995481;28;20437;-55
2023/02/04 13:24:27;;;;;;;16.35;15.45;;;;;;;;;;4992555;28;20037;-58
2023/02/04 13:26:53;;;;;;;17.25;16.20;;;;;;;;;;4991311;28;20677;-58
2023/02/04 13:29:18;;;;;;;16.58;15.68;;;;;;;;;;4994657;28;20106;-56
2023/02/04 13:31:44;;;;;;;18.92;17.75;;;;;;;;;;4993764;28;20399;-56
2023/02/04 13:34:09;;;;;;;28.58;20.17;;;;;;;;;;4995483;28;20084;-56
2023/02/04 13:36:35;;;;;;;18.40;17.15;;;;;;;;;;4995820;28;20173;-47
2023/02/04 13:39:00;;;;;;;16.92;15.80;;;;;;;;;;4994443;28;20066;-58
2023/02/04 13:41:26;;;;;;;16.25;15.35;;;;;;;;;;4997858;28;20034;-57
2023/02/04 13:43:52;;;;;;;17.65;16.65;;;;;;;;;;4993916;28;20530;-48
2023/02/04 13:46:18;;;;;;;16.35;15.25;;;;;;;;;;4993587;28;20042;-48
2023/02/04 13:48:43;;;;;;;14.32;13.52;;;;;;;;;;4994198;28;20034;-47
2023/02/04 13:51:08;;;;;;;15.85;14.88;;;;;;;;;;4997688;28;20064;-47
2023/02/04 13:53:34;;;;;;;14.57;13.77;;;;;;;;;;4992172;28;20035;-46
2023/02/04 13:56:00;;;;;;;13.95;13.15;;;;;;;;;;4991907;28;20076;-57
2023/02/04 13:58:26;;;;;;;14.95;14.15;;;;;;;;;;4994920;28;20038;-47
2023/02/04 14:00:56;;;;;;;14.55;13.75;;;;;;;;;;4992701;28;20030;-57
2023/02/04 14:03:22;;;;;;;15.07;14.20;;;;;;;;;;4995130;28;20084;-47
2023/02/04 14:05:48;;;;;;;15.90;14.95;;;;;;;;;;4999069;28;20065;-47
2023/02/04 14:08:13;;;;;;;16.33;15.32;;;;;;;;;;4997995;28;20080;-49
2023/02/04 14:10:38;;;;;;;14.73;13.93;;;;;;;;;;4999858;28;20038;-46
2023/02/04 14:13:04;;;;;;;15.05;14.15;;;;;;;;;;4999568;28;20037;-47
2023/02/04 14:15:29;;;;;;;16.15;14.95;;;;;;;;;;5005856;28;20515;-49